Time;durP1;ratioP1;P1;durP2;ratioP2;P2;SDS_P1;SDS_P2;PMS_P1;PMS_P2;Temp;Humidity;BMP_temperature;BMP_pressure;BME280_temperature;BME280_humidity;BME280_pressure;Samples;Min_cycle;Max_cycle;Signal;HPM_P1;HPM_P2
2021/05/22 00:04:03;;;;;;;6.37;3.25;;;;;;;13.61;62.35;99636.43;5084629;57;1136495;-74
2021/05/22 00:09:09;;;;;;;3.90;2.30;;;;;;;13.58;62.43;99632.30;5084590;57;1136430;-73
2021/05/22 00:14:15;;;;;;;2.77;2.20;;;;;;;13.54;63.12;99623.47;5084797;57;1136749;-76
2021/05/22 00:19:21;;;;;;;2.93;2.00;;;;;;;13.44;63.15;99627.58;5084442;57;1136478;-76
2021/05/22 00:24:26;;;;;;;2.27;1.63;;;;;;;13.31;63.90;99631.14;5084595;57;1136421;-75
2021/05/22 00:29:32;;;;;;;5.10;1.97;;;;;;;13.15;64.03;99627.06;5084407;57;1136806;-75
2021/05/22 00:34:38;;;;;;;4.73;1.67;;;;;;;13.17;63.94;99627.75;5084211;57;1136389;-73
2021/05/22 00:39:44;;;;;;;2.90;1.70;;;;;;;13.20;64.16;99628.77;5084170;57;1136655;-75
2021/05/22 00:45:16;;;;;;;5.83;2.27;;;;;;;13.25;64.08;99629.14;5091920;57;1136551;-74
2021/05/22 00:50:31;;;;;;;6.53;2.33;;;;;;;13.20;64.12;99626.95;5076242;57;1136790;-76
2021/05/22 00:55:38;;;;;;;3.73;2.30;;;;;;;13.16;64.09;99630.06;5084032;57;1136568;-77
2021/05/22 01:00:51;;;;;;;6.43;2.30;;;;;;;13.08;64.22;99625.52;5097799;56;1136449;-74
2021/05/22 01:06:15;;;;;;;2.58;2.00;;;;;;;13.08;64.26;99633.48;5099365;56;1136460;-77
2021/05/22 01:11:31;;;;;;;4.50;1.40;;;;;;;13.13;64.40;99629.88;5098944;56;1136621;-77
2021/05/22 01:16:40;;;;;;;3.20;2.30;;;;;;;13.15;64.28;99625.25;5096698;56;1136508;-76
2021/05/22 01:21:45;;;;;;;4.73;2.90;;;;;;;13.14;64.38;99613.45;5099219;56;1136505;-76
2021/05/22 01:26:53;;;;;;;6.70;4.97;;;;;;;13.11;64.40;99609.28;5101690;56;1136884;-77
2021/05/22 01:31:58;;;;;;;5.60;3.43;;;;;;;13.01;64.25;99600.09;5083818;56;1136777;-76
2021/05/22 01:37:06;;;;;;;11.63;2.72;;;;;;;12.87;64.17;99596.68;5099095;56;1136804;-75
2021/05/22 01:42:12;;;;;;;4.10;2.80;;;;;;;12.82;64.53;99596.34;5098723;56;1138916;-73
2021/05/22 01:47:20;;;;;;;7.13;4.20;;;;;;;12.75;64.37;99592.62;5099070;56;1136911;-78
2021/05/22 01:52:27;;;;;;;10.53;5.53;;;;;;;12.68;64.65;99588.42;5098945;56;1136823;-76
2021/05/22 01:57:33;;;;;;;6.87;4.03;;;;;;;12.61;65.07;99573.30;5098875;56;1139048;-77
2021/05/22 02:02:51;;;;;;;3.23;2.80;;;;;;;12.47;64.98;99565.90;5063057;57;1136764;-73
2021/05/22 02:07:58;;;;;;;8.40;2.55;;;;;;;12.33;65.04;99557.52;5084435;57;1137033;-72
2021/05/22 02:13:05;;;;;;;6.97;2.58;;;;;;;12.26;65.33;99559.59;5084190;57;1136796;-76
2021/05/22 02:18:14;;;;;;;7.83;2.37;;;;;;;12.25;65.57;99572.01;5084246;57;1137060;-73
2021/05/22 02:23:21;;;;;;;6.33;2.70;;;;;;;12.29;65.85;99572.55;5084322;57;1136603;-75
2021/05/22 02:28:37;;;;;;;6.13;2.90;;;;;;;12.32;66.13;99569.59;5084018;57;1136473;-74
2021/05/22 02:33:44;;;;;;;9.30;3.00;;;;;;;12.31;66.23;99563.95;5084190;57;1136457;-73
2021/05/22 02:38:53;;;;;;;4.23;2.87;;;;;;;12.26;66.54;99570.19;5084298;57;1136617;-73
2021/05/22 02:44:02;;;;;;;6.55;3.85;;;;;;;12.24;66.37;99567.69;5084223;57;1136698;-74
2021/05/22 02:49:11;;;;;;;2.22;2.02;;;;;;;12.21;66.63;99568.02;5084308;57;1136511;-74
2021/05/22 02:54:19;;;;;;;5.63;1.80;;;;;;;12.17;66.80;99574.61;5083960;57;1136474;-77
2021/05/22 02:59:27;;;;;;;7.97;2.30;;;;;;;12.08;67.82;99555.62;5084155;57;1136379;-75
2021/05/22 03:04:35;;;;;;;7.20;2.23;;;;;;;11.99;68.53;99557.87;5098553;56;1136398;-76
2021/05/22 03:09:40;;;;;;;4.33;2.50;;;;;;;11.87;70.32;99563.05;5098670;56;1136469;-77
2021/05/22 03:14:46;;;;;;;7.53;2.50;;;;;;;11.82;70.76;99560.84;5097690;56;1136426;-75
2021/05/22 03:19:52;;;;;;;5.33;2.57;;;;;;;11.79;70.64;99572.23;5117389;56;1136329;-75
2021/05/22 03:24:58;;;;;;;9.67;2.50;;;;;;;11.76;71.11;99562.79;5098639;56;1136403;-76
2021/05/22 03:30:07;;;;;;;4.00;1.90;;;;;;;11.77;71.11;99561.78;5098672;56;1136311;-75
2021/05/22 03:35:13;;;;;;;5.03;1.97;;;;;;;11.74;72.00;99563.39;5098547;56;1136554;-77
2021/05/22 03:40:19;;;;;;;4.30;1.83;;;;;;;11.71;72.30;99562.36;5098327;56;1136936;-76
2021/05/22 03:45:26;;;;;;;4.53;2.70;;;;;;;11.71;72.66;99559.72;5098359;56;1136870;-76
2021/05/22 03:50:32;;;;;;;2.10;1.90;;;;;;;11.74;72.13;99564.72;5098649;56;1136878;-75
2021/05/22 03:55:38;;;;;;;5.80;2.20;;;;;;;11.77;72.21;99580.32;5098492;56;1137067;-76
2021/05/22 04:00:45;;;;;;;2.07;1.87;;;;;;;11.79;72.33;99610.64;5098444;56;1137088;-76
2021/05/22 04:05:50;;;;;;;5.07;1.90;;;;;;;11.77;72.81;99623.20;5085189;56;1137173;-75
2021/05/22 04:10:56;;;;;;;5.03;2.13;;;;;;;11.82;72.49;99601.08;5084589;57;1137030;-74
2021/05/22 04:16:02;;;;;;;4.20;2.25;;;;;;;11.82;72.59;99601.08;5084776;57;1137048;-77
2021/05/22 04:21:08;;;;;;;4.47;2.25;;;;;;;11.80;72.87;99602.55;5084519;57;1136868;-76
2021/05/22 04:26:13;;;;;;;3.20;2.23;;;;;;;11.85;72.59;99608.73;5084699;57;1137053;-79
2021/05/22 04:31:19;;;;;;;5.73;2.00;;;;;;;11.89;73.07;99617.56;5083853;57;1136652;-79
2021/05/22 04:36:24;;;;;;;5.77;2.40;;;;;;;11.88;73.14;99611.09;5084299;57;1136673;-78
2021/05/22 04:41:30;;;;;;;2.73;2.07;;;;;;;11.92;73.01;99621.22;5084370;57;1137038;-74
2021/05/22 04:46:37;;;;;;;6.90;2.23;;;;;;;11.97;73.03;99620.78;5084698;57;1136333;-77
2021/05/22 04:51:45;;;;;;;9.20;2.03;;;;;;;11.98;73.26;99627.75;5084439;57;1136419;-76
2021/05/22 04:56:50;;;;;;;4.37;2.45;;;;;;;11.98;73.46;99636.53;5084376;57;1136350;-77
2021/05/22 05:01:56;;;;;;;6.23;1.57;;;;;;;12.01;73.54;99646.00;5084303;57;1136432;-76
2021/05/22 05:07:04;;;;;;;2.20;2.00;;;;;;;12.01;73.95;99635.41;5097398;56;1136766;-78
2021/05/22 05:12:13;;;;;;;3.40;2.15;;;;;;;12.04;73.45;99632.95;5099205;56;1136838;-80
2021/05/22 05:17:18;;;;;;;2.83;1.93;;;;;;;12.05;73.88;99624.02;5097158;56;1136917;-76
2021/05/22 05:22:24;;;;;;;2.13;1.77;;;;;;;12.11;73.44;99614.13;5099024;56;1136888;-75
2021/05/22 05:27:30;;;;;;;1.87;1.70;;;;;;;12.16;73.41;99624.62;5099193;56;1136861;-79
2021/05/22 05:32:35;;;;;;;6.80;2.10;;;;;;;12.23;73.50;99611.09;5098704;56;1136851;-76
2021/05/22 05:37:41;;;;;;;4.27;1.60;;;;;;;12.27;73.16;99617.77;5098916;56;1136747;-77
2021/05/22 05:42:48;;;;;;;1.77;1.67;;;;;;;12.30;73.07;99633.38;5098911;56;1136950;-75
2021/05/22 05:47:56;;;;;;;8.70;1.87;;;;;;;12.35;73.56;99637.41;5099231;56;1136926;-78
2021/05/22 05:53:02;;;;;;;2.95;2.10;;;;;;;12.36;73.49;99631.95;5099260;56;1137083;-75
2021/05/22 05:58:09;;;;;;;4.90;2.67;;;;;;;12.37;73.49;99623.50;5099113;56;1136778;-76
2021/05/22 06:03:17;;;;;;;2.27;2.07;;;;;;;12.40;73.19;99627.15;5099077;56;1136901;-78
2021/05/22 06:08:23;;;;;;;5.73;2.47;;;;;;;12.42;73.67;99638.44;5098442;56;1136492;-78
2021/05/22 06:13:34;;;;;;;4.73;1.97;;;;;;;12.48;73.35;99637.84;5098865;56;1136398;-78
2021/05/22 06:18:41;;;;;;;6.73;2.40;;;;;;;12.53;73.48;99634.22;5099335;56;1136671;-77
2021/05/22 06:23:48;;;;;;;4.43;1.90;;;;;;;12.56;73.49;99635.25;5098465;56;1136421;-77
2021/05/22 06:28:53;;;;;;;3.03;1.77;;;;;;;12.63;73.34;99634.98;5098845;56;1136590;-74
2021/05/22 06:34:01;;;;;;;7.92;3.35;;;;;;;12.64;73.65;99647.27;5099070;56;1136604;-75
2021/05/22 06:39:07;;;;;;;3.55;2.45;;;;;;;12.68;73.50;99640.16;5098997;56;1136566;-74
2021/05/22 06:44:22;;;;;;;3.75;2.30;;;;;;;12.71;73.56;99628.41;5098798;56;1136661;-74
2021/05/22 06:49:23;;;;;;;4.57;2.20;;;;;;;12.74;73.98;99633.41;5098606;56;1136342;-77
2021/05/22 06:54:30;;;;;;;4.47;2.70;;;;;;;12.90;74.07;99625.56;5098766;56;1136353;-73
2021/05/22 06:59:36;;;;;;;3.43;2.53;;;;;;;12.90;74.07;99625.56;5099111;56;1136432;-73
2021/05/22 07:04:43;;;;;;;2.50;1.30;;;;;;;13.07;74.07;99633.14;5098977;56;1136365;-74
2021/05/22 07:09:48;;;;;;;4.03;2.60;;;;;;;13.17;74.18;99619.28;5099352;56;1136432;-76
2021/05/22 07:14:54;;;;;;;4.80;2.57;;;;;;;13.24;73.49;99627.47;5099165;56;1136738;-75
2021/05/22 07:20:00;;;;;;;4.13;2.17;;;;;;;13.31;73.32;99627.99;5099521;56;1137045;-74
2021/05/22 07:25:06;;;;;;;4.87;2.72;;;;;;;13.31;73.12;99631.97;5099251;56;1136827;-74
2021/05/22 07:30:15;;;;;;;8.35;2.25;;;;;;;13.32;72.88;99634.97;5099371;56;1137146;-76
2021/05/22 07:35:21;;;;;;;7.40;3.77;;;;;;;13.25;72.89;99631.80;5099077;56;1137062;-72
2021/05/22 07:40:27;;;;;;;11.13;3.20;;;;;;;13.20;72.90;99625.62;5099151;56;1136862;-76
2021/05/22 07:45:33;;;;;;;3.20;2.23;;;;;;;13.18;73.04;99624.11;5098675;56;1138930;-74
2021/05/22 07:50:39;;;;;;;4.57;2.30;;;;;;;13.19;73.00;99625.28;5099186;56;1136897;-75
2021/05/22 07:55:46;;;;;;;4.47;2.60;;;;;;;13.21;73.46;99643.22;5099053;56;1136844;-74
2021/05/22 08:00:52;;;;;;;3.57;1.83;;;;;;;13.19;73.63;99645.19;5099016;56;1136842;-76
2021/05/22 08:05:58;;;;;;;6.37;2.60;;;;;;;13.18;73.78;99644.02;5105063;56;1146068;-75
2021/05/22 08:11:04;;;;;;;6.25;1.95;;;;;;;13.16;73.92;99652.14;5073560;56;1136692;-75
2021/05/22 08:16:11;;;;;;;5.00;1.98;;;;;;;13.14;74.38;99670.01;5105398;56;1136988;-76
2021/05/22 08:21:22;;;;;;;4.03;1.80;;;;;;;13.15;74.62;99670.38;5168714;56;1137106;-77
2021/05/22 08:26:26;;;;;;;2.27;2.10;;;;;;;13.16;74.93;99648.65;5164604;56;1136664;-75
2021/05/22 08:31:34;;;;;;;1.67;1.57;;;;;;;13.23;74.76;99651.03;5168968;56;1136724;-74
2021/05/22 08:36:40;;;;;;;3.43;2.10;;;;;;;13.30;75.25;99654.70;5168878;56;1136617;-75
2021/05/22 08:41:46;;;;;;;1.47;1.37;;;;;;;13.40;74.97;99642.16;5169157;56;1136518;-73
2021/05/22 08:46:52;;;;;;;5.27;1.67;;;;;;;13.51;74.97;99641.88;5168646;56;1136267;-80
2021/05/22 08:51:59;;;;;;;2.60;1.30;;;;;;;13.55;73.89;99640.58;5186821;56;1136568;-76
2021/05/22 08:57:06;;;;;;;3.50;2.17;;;;;;;13.65;73.75;99629.81;5153485;56;1136570;-78
2021/05/22 09:02:16;;;;;;;6.87;2.10;;;;;;;13.71;73.38;99618.55;5169495;56;1136405;-76
2021/05/22 09:07:25;;;;;;;5.40;2.43;;;;;;;13.73;73.38;99633.34;5169115;56;1137002;-74
2021/05/22 09:12:36;;;;;;;3.90;2.00;;;;;;;13.78;73.02;99609.42;5148028;56;1137290;-77
2021/05/22 09:17:58;;;;;;;17.27;2.53;;;;;;;13.88;73.27;99595.02;5089772;56;1137191;-75
2021/05/22 09:23:13;;;;;;;3.33;3.03;;;;;;;14.07;72.26;99592.05;5095455;56;1138867;-76
2021/05/22 09:28:29;;;;;;;4.17;3.63;;;;;;;14.29;72.99;99581.77;5083680;56;1137102;-76
2021/05/22 09:33:37;;;;;;;9.73;3.70;;;;;;;14.49;71.89;99567.68;5084212;56;1136773;-76
2021/05/22 09:38:56;;;;;;;8.83;4.17;;;;;;;14.72;72.32;99560.16;5085956;56;1136779;-74
2021/05/22 09:44:18;;;;;;;7.50;3.67;;;;;;;15.10;70.96;99566.58;5164757;56;1137064;-73
2021/05/22 09:49:32;;;;;;;10.43;4.97;;;;;;;15.61;68.52;99574.20;5168192;56;1136336;-77
2021/05/22 09:54:53;;;;;;;3.80;2.67;;;;;;;15.61;68.52;99574.20;5168554;56;1138475;-76
2021/05/22 10:00:20;;;;;;;2.90;1.90;;;;;;;15.74;68.27;99582.47;5186200;56;1146469;-78
2021/05/22 10:05:35;;;;;;;2.67;1.60;;;;;;;15.95;67.89;99569.35;5168373;56;1136545;-76
2021/05/22 10:10:51;;;;;;;2.40;1.87;;;;;;;16.16;64.86;99562.88;5168371;56;1136663;-72
2021/05/22 10:16:01;;;;;;;9.23;2.50;;;;;;;16.12;64.28;99560.74;5168124;56;1136667;-73
2021/05/22 10:21:07;;;;;;;4.37;2.50;;;;;;;15.88;64.07;99564.92;5168511;56;1137119;-74
2021/05/22 10:26:15;;;;;;;6.17;2.77;;;;;;;15.67;64.36;99562.36;5131710;56;1136615;-77
2021/05/22 10:31:21;;;;;;;3.10;1.90;;;;;;;15.55;64.67;99571.75;5083135;57;1136504;-78
2021/05/22 10:36:51;;;;;;;4.27;2.30;;;;;;;15.81;65.93;99564.78;5083314;57;1136890;-79
2021/05/22 10:41:56;;;;;;;4.13;2.43;;;;;;;16.20;65.63;99559.33;5039642;57;1136963;-80
2021/05/22 10:47:12;;;;;;;3.57;2.90;;;;;;;16.61;64.68;99562.52;5063501;56;1136821;-78
2021/05/22 10:52:28;;;;;;;7.20;2.27;;;;;;;16.93;63.32;99556.55;5083612;57;1136820;-79
2021/05/22 10:57:49;;;;;;;5.90;3.00;;;;;;;16.84;61.13;99565.97;5083625;57;1136332;-78
2021/05/22 11:03:13;;;;;;;4.50;1.63;;;;;;;16.68;61.21;99571.47;5083625;57;1136347;-76
2021/05/22 11:08:27;;;;;;;4.00;2.13;;;;;;;16.44;58.70;99558.32;5083537;57;1136608;-77
2021/05/22 11:13:36;;;;;;;6.57;1.20;;;;;;;16.30;61.04;99587.95;5080297;57;1136995;-78
2021/05/22 11:18:46;;;;;;;3.00;0.90;;;;;;;15.90;57.64;99645.04;5066094;57;1136834;-77
2021/05/22 11:24:05;;;;;;;13.83;2.33;;;;;;;14.48;61.58;99673.77;5065881;57;1136999;-76
2021/05/22 11:29:11;;;;;;;2.10;0.60;;;;;;;13.09;66.10;99685.59;5065477;57;1138918;-76
2021/05/22 11:34:27;;;;;;;4.75;0.82;;;;;;;12.19;69.44;99676.02;5065947;57;1136950;-75
2021/05/22 11:39:45;;;;;;;9.23;1.63;;;;;;;11.81;71.77;99686.83;5065620;57;1137127;-76
2021/05/22 11:44:59;;;;;;;4.27;1.10;;;;;;;11.76;72.33;99682.48;5066338;57;1137097;-76
2021/05/22 11:50:10;;;;;;;6.93;3.27;;;;;;;11.81;72.67;99678.40;5066079;57;1137009;-75
2021/05/22 11:55:21;;;;;;;4.55;1.22;;;;;;;11.83;72.60;99680.91;5066091;57;1137263;-78
2021/05/22 12:00:30;;;;;;;8.63;3.27;;;;;;;12.01;73.25;99671.18;5066295;57;1136611;-78
2021/05/22 12:05:40;;;;;;;5.40;2.97;;;;;;;12.28;73.53;99665.00;5065953;57;1136804;-75
2021/05/22 12:10:46;;;;;;;5.17;2.40;;;;;;;12.44;73.44;99649.73;5065883;57;1136420;-76
2021/05/22 12:15:53;;;;;;;3.33;1.90;;;;;;;12.73;74.20;99642.35;5071065;57;1136629;-76
2021/05/22 12:21:00;;;;;;;7.60;1.63;;;;;;;13.07;74.22;99625.67;5083787;57;1136832;-76
2021/05/22 12:26:09;;;;;;;5.40;1.50;;;;;;;13.41;74.13;99626.56;5084094;57;1136340;-76
2021/05/22 12:31:18;;;;;;;6.22;1.80;;;;;;;13.73;74.29;99632.02;5083546;57;1136364;-76
2021/05/22 12:36:23;;;;;;;10.93;4.30;;;;;;;13.91;75.25;99641.19;5083254;57;1137105;-75
2021/05/22 12:41:38;;;;;;;15.13;4.90;;;;;;;14.22;76.87;99631.28;5083701;57;1138399;-76
2021/05/22 12:46:46;;;;;;;15.27;5.97;;;;;;;14.46;75.71;99637.18;5083708;57;1138416;-76
2021/05/22 12:52:14;;;;;;;35.80;18.57;;;;;;;14.43;74.69;99628.53;5083636;57;1138336;-78
2021/05/22 12:57:20;;;;;;;9.43;6.60;;;;;;;14.50;75.01;99639.85;5083337;57;1140514;-76
2021/05/22 13:02:29;;;;;;;17.53;9.57;;;;;;;14.57;75.07;99628.37;5083673;57;1136445;-80
2021/05/22 13:07:55;;;;;;;1.53;1.20;;;;;;;14.87;75.21;99627.35;5083979;57;1138941;-77
2021/05/22 13:13:09;;;;;;;5.00;2.43;;;;;;;14.88;73.14;99621.86;5083687;57;1136294;-78
2021/05/22 13:18:31;;;;;;;19.73;10.23;;;;;;;14.85;73.83;99612.04;5076512;57;1136506;-77
2021/05/22 13:23:49;;;;;;;8.77;3.93;;;;;;;14.93;74.82;99584.09;5066117;57;1140580;-76
2021/05/22 13:28:59;;;;;;;9.93;4.23;;;;;;;15.01;74.69;99592.88;5066596;57;1136562;-79
2021/05/22 13:34:07;;;;;;;2.97;1.53;;;;;;;15.07;75.22;99572.23;5066804;57;1136506;-76
2021/05/22 13:39:15;;;;;;;9.28;2.95;;;;;;;15.06;74.63;99561.25;5066755;57;1136693;-77
2021/05/22 13:44:23;;;;;;;7.95;3.17;;;;;;;14.95;74.05;99590.08;5066545;57;1136464;-80
2021/05/22 13:49:29;;;;;;;7.63;2.60;;;;;;;14.70;74.13;99596.75;5066477;57;1136500;-78
2021/05/22 13:54:35;;;;;;;9.17;5.17;;;;;;;14.41;74.19;99600.42;5066331;57;1136485;-76
2021/05/22 13:59:40;;;;;;;11.43;4.30;;;;;;;14.20;74.95;99605.37;5066264;57;1136985;-75
2021/05/22 14:04:46;;;;;;;6.63;3.63;;;;;;;14.04;75.09;99613.66;5065722;57;1138905;-77
2021/05/22 14:09:52;;;;;;;22.57;11.07;;;;;;;13.93;74.77;99639.20;5066195;57;1136817;-75
2021/05/22 14:14:58;;;;;;;19.03;8.80;;;;;;;13.94;75.55;99590.36;5065845;57;1140962;-75
2021/05/22 14:20:08;;;;;;;10.55;4.67;;;;;;;13.88;76.82;99604.32;5079836;57;1138983;-78
2021/05/22 14:25:17;;;;;;;17.82;7.20;;;;;;;14.22;79.09;99622.81;5095996;57;1138652;-75
2021/05/22 14:30:24;;;;;;;3.85;1.70;;;;;;;14.66;79.30;99610.58;5095834;57;1138716;-75
2021/05/22 14:35:30;;;;;;;3.27;2.40;;;;;;;14.95;78.02;99602.06;5095973;57;1136430;-79
2021/05/22 14:40:36;;;;;;;5.50;1.73;;;;;;;15.19;77.52;99589.17;5011799;57;1136533;-80
2021/05/22 14:45:42;;;;;;;9.40;1.50;;;;;;;15.37;76.24;99579.95;5009106;57;1136432;-77
2021/05/22 14:50:50;;;;;;;3.40;1.90;;;;;;;15.52;75.21;99572.56;5008954;57;1137002;-79
2021/05/22 14:55:56;;;;;;;13.05;7.62;;;;;;;15.48;73.80;99576.08;5008950;57;1136719;-79
2021/05/22 15:01:03;;;;;;;7.33;3.43;;;;;;;15.36;73.55;99582.29;5008924;57;1138708;-78
2021/05/22 15:06:10;;;;;;;7.03;2.20;;;;;;;15.25;73.63;99607.98;5009255;57;1136560;-79
2021/05/22 15:11:17;;;;;;;7.40;3.40;;;;;;;15.11;73.69;99598.86;5009270;57;1137079;-79
2021/05/22 15:16:22;;;;;;;16.07;3.00;;;;;;;14.91;74.45;99600.23;5009444;57;1136805;-75
2021/05/22 15:21:28;;;;;;;19.37;7.40;;;;;;;15.10;75.73;99583.89;5031626;57;1138722;-76
2021/05/22 15:26:34;;;;;;;12.27;5.60;;;;;;;15.41;75.64;99584.45;5062420;57;1138377;-78
2021/05/22 15:31:42;;;;;;;10.43;3.50;;;;;;;15.70;75.59;99579.84;5062458;57;1138614;-77
2021/05/22 15:36:48;;;;;;;9.90;6.17;;;;;;;15.89;74.32;99582.05;5062238;57;1138437;-79
2021/05/22 15:41:55;;;;;;;7.60;4.70;;;;;;;15.97;73.46;99579.84;5062690;57;1136949;-80
2021/05/22 15:47:01;;;;;;;7.22;3.42;;;;;;;16.00;73.11;99582.17;5062467;57;1136410;-75
2021/05/22 16:08:19;;;;;;;4.45;1.20;;;;;;;15.55;70.33;99603.73;5062461;57;1137081;-75
2021/05/22 16:13:25;;;;;;;1.55;1.02;;;;;;;15.47;70.79;99600.55;5064287;56;1136913;-76
2021/05/22 16:18:30;;;;;;;5.03;0.90;;;;;;;15.48;70.72;99595.56;5066867;57;1136943;-76
2021/05/22 16:23:37;;;;;;;4.78;0.62;;;;;;;15.58;68.95;99599.91;5074412;57;1136813;-75
2021/05/22 16:28:43;;;;;;;2.83;0.70;;;;;;;15.59;67.03;99613.03;5084236;56;1136875;-75
2021/05/22 16:33:51;;;;;;;4.53;1.43;;;;;;;15.56;65.49;99616.56;5084750;56;1137209;-77
2021/05/22 16:38:57;;;;;;;5.55;1.15;;;;;;;15.60;62.60;99618.69;5084538;57;1136924;-76
2021/05/22 16:44:03;;;;;;;1.63;0.53;;;;;;;15.63;61.98;99633.52;5084859;57;1137059;-75
2021/05/22 16:49:09;;;;;;;5.75;0.70;;;;;;;15.52;58.81;99635.20;5116131;56;1143423;-79
2021/05/22 16:54:15;;;;;;;1.65;0.55;;;;;;;15.40;59.42;99634.74;5101715;56;1136864;-77
2021/05/22 16:59:24;;;;;;;1.35;0.80;;;;;;;15.24;58.24;99640.95;5084354;57;1136728;-77
2021/05/22 17:04:30;;;;;;;4.83;0.73;;;;;;;15.26;60.03;99645.61;5084203;57;1136803;-77
2021/05/22 17:09:37;;;;;;;1.27;0.73;;;;;;;15.35;59.07;99651.23;5084224;57;1136852;-79
2021/05/22 17:14:43;;;;;;;3.93;2.00;;;;;;;15.36;57.97;99654.73;5083957;57;1136773;-73
2021/05/22 17:19:50;;;;;;;1.37;0.53;;;;;;;15.37;58.07;99661.72;5083750;57;1136909;-74
2021/05/22 17:24:56;;;;;;;2.57;0.73;;;;;;;15.32;56.89;99670.22;5076368;57;1137095;-71
2021/05/22 17:30:01;;;;;;;3.50;0.80;;;;;;;15.29;56.25;99671.88;5066686;57;1137076;-70
2021/05/22 17:35:09;;;;;;;2.47;0.77;;;;;;;15.29;57.00;99681.20;5066557;57;1137264;-68
2021/05/22 17:40:20;;;;;;;4.22;1.62;;;;;;;15.23;57.29;99688.56;5066557;57;1137435;-71
2021/05/22 17:45:31;;;;;;;1.72;0.57;;;;;;;15.14;57.62;99695.72;5066626;57;1137264;-74
2021/05/22 17:50:38;;;;;;;2.10;0.97;;;;;;;15.06;58.11;99698.41;5066320;57;1136496;-73
2021/05/22 17:55:48;;;;;;;2.30;0.90;;;;;;;15.01;58.75;99700.72;5066324;57;1136829;-73
2021/05/22 18:00:54;;;;;;;5.00;1.03;;;;;;;14.92;58.33;99707.06;5066504;57;1136351;-71
2021/05/22 18:06:01;;;;;;;4.77;1.30;;;;;;;14.84;58.70;99709.70;5066285;57;1136310;-75
2021/05/22 18:11:07;;;;;;;3.40;1.40;;;;;;;14.75;58.99;99714.21;5066500;57;1136263;-75
2021/05/22 18:16:13;;;;;;;2.83;0.97;;;;;;;14.68;58.74;99727.00;5066824;57;1136520;-77
2021/05/22 18:21:19;;;;;;;30.27;26.95;;;;;;;14.59;58.04;99729.33;5066298;57;1136356;-71
2021/05/22 18:26:26;;;;;;;5.72;2.22;;;;;;;14.51;57.09;99735.98;5073301;57;1141242;-72
2021/05/22 18:31:33;;;;;;;2.57;1.10;;;;;;;14.45;56.28;99751.25;5083794;57;1136667;-74
2021/05/22 18:36:41;;;;;;;5.30;1.07;;;;;;;14.41;55.06;99762.70;5083133;57;1136433;-74
2021/05/22 18:41:47;;;;;;;2.00;0.80;;;;;;;14.27;55.75;99766.79;5083787;57;1136520;-76
2021/05/22 18:46:53;;;;;;;3.13;2.20;;;;;;;14.15;56.33;99776.05;5083862;57;1136422;-73
2021/05/22 18:52:00;;;;;;;13.40;8.67;;;;;;;14.04;57.24;99779.84;5084107;57;1136482;-76
2021/05/22 18:57:07;;;;;;;2.77;1.30;;;;;;;13.95;57.72;99801.20;5084372;57;1138554;-72
2021/05/22 19:02:14;;;;;;;6.10;2.90;;;;;;;13.86;58.04;99814.96;5084698;57;1136487;-75
2021/05/22 19:07:21;;;;;;;2.27;0.57;;;;;;;13.79;58.52;99819.22;5084531;57;1136530;-74
2021/05/22 19:12:29;;;;;;;1.00;0.42;;;;;;;13.71;58.29;99824.01;5084616;57;1136377;-74
2021/05/22 19:17:34;;;;;;;2.30;2.10;;;;;;;13.58;60.08;99824.92;5084056;57;1137058;-72
2021/05/22 19:22:42;;;;;;;15.40;5.63;;;;;;;13.42;60.83;99842.06;5083424;57;1137422;-75
2021/05/22 19:27:48;;;;;;;6.77;2.53;;;;;;;13.28;60.95;99843.93;5077720;57;1139352;-75
2021/05/22 19:32:55;;;;;;;6.30;2.23;;;;;;;13.20;60.64;99846.50;5066901;57;1136909;-74
2021/05/22 19:38:02;;;;;;;4.07;1.47;;;;;;;13.16;60.57;99854.41;4945304;57;1137335;-74
2021/05/22 19:43:09;;;;;;;14.57;5.93;;;;;;;13.11;60.85;99858.01;4913077;59;1137198;-75
2021/05/22 19:48:16;;;;;;;10.10;3.30;;;;;;;13.03;60.88;99870.20;5082052;57;1139061;-74
2021/05/22 19:53:21;;;;;;;14.58;6.22;;;;;;;12.97;60.85;99862.86;5077352;57;1138896;-77
2021/05/22 19:58:28;;;;;;;16.35;6.95;;;;;;;12.91;61.38;99872.73;5066930;57;1138941;-72
2021/05/22 20:03:34;;;;;;;32.33;9.40;;;;;;;12.84;61.70;99874.80;5066461;57;1138485;-73
2021/05/22 20:08:40;;;;;;;7.13;3.07;;;;;;;12.79;61.88;99887.20;5057945;57;1138890;-72
2021/05/22 20:13:47;;;;;;;4.67;1.83;;;;;;;12.74;62.11;99879.33;5057316;57;1136376;-73
2021/05/22 20:18:53;;;;;;;11.47;4.93;;;;;;;12.66;62.50;99883.58;5073404;57;1137195;-75
2021/05/22 20:23:59;;;;;;;5.20;2.70;;;;;;;12.57;62.84;99882.28;5074134;57;1139195;-75
2021/05/22 20:29:06;;;;;;;21.83;9.77;;;;;;;12.50;63.28;99887.35;5080244;56;1137274;-72
2021/05/22 20:34:11;;;;;;;6.60;4.63;;;;;;;12.46;63.51;99897.06;5109609;56;1139355;-72
2021/05/22 20:39:17;;;;;;;6.30;3.13;;;;;;;12.41;63.95;99897.98;5147202;56;1137070;-73
2021/05/22 20:44:22;;;;;;;3.30;2.00;;;;;;;12.34;64.49;99897.75;5169366;56;1136790;-75
2021/05/22 20:49:28;;;;;;;4.10;2.22;;;;;;;12.29;65.02;99899.50;5169676;56;1136819;-78
2021/05/22 20:54:34;;;;;;;5.60;2.60;;;;;;;12.26;65.24;99895.81;5169458;56;1136823;-74
2021/05/22 20:59:40;;;;;;;2.67;1.70;;;;;;;12.23;65.99;99892.60;5124171;56;1136957;-76
2021/05/22 21:04:47;;;;;;;9.83;2.10;;;;;;;12.12;66.69;99902.90;5169214;56;1136935;-73
2021/05/22 21:09:54;;;;;;;7.47;4.37;;;;;;;12.08;67.17;99909.95;5169243;56;1137069;-74
2021/05/22 21:14:59;;;;;;;1.87;1.70;;;;;;;12.04;67.48;99915.21;5169075;56;1137125;-72
2021/05/22 21:20:09;;;;;;;1.50;1.20;;;;;;;12.02;67.80;99907.41;5169232;56;1137083;-77
2021/05/22 21:25:15;;;;;;;7.60;2.80;;;;;;;12.01;68.28;99912.35;5169576;56;1137342;-76
2021/05/22 21:30:22;;;;;;;10.15;3.05;;;;;;;11.99;68.58;99916.95;5169281;56;1137076;-73
2021/05/22 21:35:29;;;;;;;2.27;1.75;;;;;;;12.01;68.23;99918.98;5113522;56;1139130;-78
2021/05/22 21:40:35;;;;;;;3.87;1.50;;;;;;;11.99;68.61;99919.61;5083919;57;1136368;-76
2021/05/22 21:45:41;;;;;;;4.07;2.00;;;;;;;12.00;68.84;99925.26;5083972;57;1136294;-73
2021/05/22 21:50:47;;;;;;;2.10;1.60;;;;;;;12.03;68.94;99919.68;5083899;57;1136739;-74
2021/05/22 21:55:53;;;;;;;2.47;1.52;;;;;;;12.00;69.17;99919.12;5038527;57;1136508;-77
2021/05/22 22:01:03;;;;;;;8.77;4.83;;;;;;;12.03;69.55;99920.17;5083866;57;1136493;-75
2021/05/22 22:06:13;;;;;;;5.67;3.30;;;;;;;12.03;69.28;99924.98;5083745;57;1136302;-75
2021/05/22 22:11:23;;;;;;;8.75;3.25;;;;;;;12.02;69.65;99926.45;5083816;57;1136383;-77
2021/05/22 22:16:29;;;;;;;11.28;5.70;;;;;;;12.01;69.82;99928.25;5083661;57;1136442;-79
2021/05/22 22:21:38;;;;;;;5.77;2.57;;;;;;;12.02;69.99;99928.61;5083491;57;1139070;-77
2021/05/22 22:26:46;;;;;;;3.17;1.50;;;;;;;12.03;70.07;99934.25;5083700;57;1136486;-76
2021/05/22 22:31:52;;;;;;;2.10;1.43;;;;;;;12.04;70.86;99945.20;5083310;57;1136515;-77
2021/05/22 22:36:58;;;;;;;1.63;1.00;;;;;;;12.01;70.77;99947.30;5083153;57;1136643;-74
2021/05/22 22:42:04;;;;;;;3.33;1.47;;;;;;;12.02;71.12;99946.32;5083441;57;1136735;-77
2021/05/22 22:47:09;;;;;;;3.10;1.70;;;;;;;12.02;70.75;99953.78;5083182;57;1136545;-75
2021/05/22 22:52:16;;;;;;;3.58;1.60;;;;;;;12.04;70.94;99951.83;5087363;57;1137224;-76
2021/05/22 22:57:22;;;;;;;4.67;1.72;;;;;;;12.07;70.77;99956.82;5083472;57;1136318;-76
2021/05/22 23:02:28;;;;;;;2.92;1.70;;;;;;;12.06;70.74;99949.88;5083464;57;1136545;-74
2021/05/22 23:07:34;;;;;;;1.32;1.22;;;;;;;12.08;70.64;99947.89;5083429;57;1136519;-76
2021/05/22 23:12:40;;;;;;;4.40;1.50;;;;;;;12.12;70.60;99946.64;5083482;57;1137089;-74
2021/05/22 23:17:47;;;;;;;4.67;1.70;;;;;;;12.09;70.75;99952.22;5083785;57;1136370;-76
2021/05/22 23:22:54;;;;;;;5.40;1.80;;;;;;;12.06;70.49;99956.51;5083800;57;1136329;-74
2021/05/22 23:28:00;;;;;;;2.83;2.07;;;;;;;12.06;70.61;99957.00;5083544;57;1136705;-75
2021/05/22 23:33:09;;;;;;;4.10;2.00;;;;;;;12.05;70.62;99952.18;5082645;57;1136526;-74
2021/05/22 23:38:15;;;;;;;6.20;1.67;;;;;;;12.02;70.61;99945.83;5066557;57;1136273;-79
2021/05/22 23:43:21;;;;;;;3.70;1.37;;;;;;;12.00;70.60;99950.44;5067046;57;1137028;-73
2021/05/22 23:48:27;;;;;;;4.17;1.42;;;;;;;11.95;70.84;99949.52;5066887;57;1137294;-76
2021/05/22 23:53:33;;;;;;;2.17;1.10;;;;;;;11.93;70.94;99954.61;5067172;57;1136815;-74